createdAt,value
2022-09-23T00:01:25.353Z,12.17
2022-09-23T00:03:54.691Z,12.10
2022-09-23T00:06:24.288Z,12.17
2022-09-23T00:08:52.778Z,12.13
2022-09-23T00:11:22.932Z,12.12
2022-09-23T00:13:53.450Z,12.04
2022-09-23T00:16:24.094Z,12.09
2022-09-23T00:18:51.962Z,12.09
2022-09-23T00:21:23.014Z,12.09
2022-09-23T00:23:50.967Z,12.12
2022-09-23T00:26:20.820Z,12.14
2022-09-23T00:28:49.325Z,12.13
2022-09-23T00:31:18.975Z,12.13
2022-09-23T00:33:46.887Z,12.07
2022-09-23T00:36:16.531Z,12.07
2022-09-23T00:38:46.898Z,11.99
2022-09-23T00:41:16.221Z,11.89
2022-09-23T00:43:44.754Z,11.82
2022-09-23T00:46:16.989Z,11.75
2022-09-23T00:48:45.816Z,11.73
2022-09-23T00:51:17.845Z,11.66
2022-09-23T00:53:49.556Z,11.63
2022-09-23T00:56:17.524Z,11.57
2022-09-23T00:58:47.639Z,11.54
2022-09-23T01:01:15.665Z,11.41
2022-09-23T01:03:45.563Z,11.48
2022-09-23T01:06:14.137Z,11.45
2022-09-23T01:08:43.646Z,11.38
2022-09-23T01:11:24.465Z,11.30
2022-09-23T01:13:59.350Z,11.21
2022-09-23T01:16:34.541Z,11.21
2022-09-23T01:19:12.455Z,11.17
2022-09-23T01:21:48.298Z,11.15
2022-09-23T01:24:31.273Z,11.12
2022-09-23T01:27:20.242Z,11.03
2022-09-23T01:30:47.961Z,10.94
2022-09-23T01:33:24.204Z,11.08
2022-09-23T01:36:08.302Z,10.96
2022-09-23T01:38:43.213Z,10.97
2022-09-23T01:41:23.709Z,11.03
2022-09-23T01:44:00.606Z,11.15
2022-09-23T01:46:32.268Z,11.15
2022-09-23T01:49:08.038Z,11.21
2022-09-23T01:51:39.724Z,11.34
2022-09-23T01:54:12.408Z,11.32
2022-09-23T01:56:45.178Z,11.32
2022-09-23T01:59:16.298Z,11.24
2022-09-23T02:01:50.803Z,11.30
2022-09-23T02:04:26.678Z,11.28
2022-09-23T02:06:59.011Z,11.18
2022-09-23T02:09:31.712Z,11.18
2022-09-23T02:12:04.664Z,11.15
2022-09-23T02:14:37.411Z,11.03
2022-09-23T02:17:10.625Z,10.99
2022-09-23T02:19:43.609Z,11.07
2022-09-23T02:22:17.455Z,11.06
2022-09-23T02:24:45.882Z,11.14
2022-09-23T02:27:21.510Z,11.15
2022-09-23T02:29:55.525Z,11.10
2022-09-23T02:32:32.538Z,10.97
2022-09-23T02:35:10.086Z,10.93
2022-09-23T02:37:43.558Z,10.84
2022-09-23T02:40:18.569Z,10.70
2022-09-23T02:42:51.674Z,10.71
2022-09-23T02:45:19.599Z,10.76
2022-09-23T02:47:53.018Z,10.79
2022-09-23T02:50:22.636Z,10.83
2022-09-23T02:52:50.794Z,10.73
2022-09-23T02:55:20.224Z,10.73
2022-09-23T02:57:48.237Z,10.74
2022-09-23T03:00:16.841Z,10.77
2022-09-23T03:03:10.499Z,10.66
2022-09-23T03:05:46.589Z,10.49
2022-09-23T03:08:29.546Z,10.49
2022-09-23T03:11:04.288Z,10.56
2022-09-23T03:13:38.382Z,10.55
2022-09-23T03:16:13.235Z,10.55
2022-09-23T03:18:45.681Z,10.38
2022-09-23T03:21:23.215Z,10.35
2022-09-23T03:23:52.177Z,10.26
2022-09-23T03:26:25.159Z,10.16
2022-09-23T03:28:54.473Z,10.08
2022-09-23T03:31:22.167Z,10.09
2022-09-23T03:33:55.610Z,9.99
2022-09-23T03:36:47.834Z,9.94
2022-09-23T03:39:27.616Z,9.97
2022-09-23T03:41:58.512Z,9.98
2022-09-23T03:44:29.164Z,9.97
2022-09-23T03:46:59.980Z,10.12
2022-09-23T03:49:32.973Z,10.20
2022-09-23T03:52:02.438Z,10.19
2022-09-23T03:54:30.720Z,10.23
2022-09-23T03:56:59.108Z,10.12
2022-09-23T03:59:27.401Z,9.98
2022-09-23T04:01:56.010Z,9.87
2022-09-23T04:04:23.763Z,9.85
2022-09-23T04:06:51.594Z,9.88
2022-09-23T04:09:21.042Z,9.97
2022-09-23T04:11:49.850Z,10.26
2022-09-23T04:14:18.373Z,10.83
2022-09-23T04:16:46.621Z,11.17
2022-09-23T04:19:15.323Z,11.43
2022-09-23T04:21:45.477Z,11.76
2022-09-23T04:24:14.626Z,12.04
2022-09-23T04:26:44.372Z,12.00
2022-09-23T04:29:12.499Z,12.03
2022-09-23T04:31:40.737Z,12.06
2022-09-23T04:34:08.611Z,12.06
2022-09-23T04:36:36.371Z,12.31
2022-09-23T04:39:04.539Z,12.23
2022-09-23T04:41:32.398Z,12.20
2022-09-23T04:44:01.868Z,12.26
2022-09-23T04:46:29.763Z,12.13
2022-09-23T04:48:57.967Z,12.02
2022-09-23T04:51:27.164Z,12.03
2022-09-23T04:53:56.693Z,11.94
2022-09-23T04:56:26.691Z,11.97
2022-09-23T04:58:57.175Z,12.14
2022-09-23T05:01:28.115Z,12.24
2022-09-23T05:03:57.818Z,12.30
2022-09-23T05:06:26.233Z,12.43
2022-09-23T05:08:55.830Z,12.30
2022-09-23T05:11:25.285Z,12.30
2022-09-23T05:13:55.077Z,12.00
2022-09-23T05:16:24.600Z,11.63
2022-09-23T05:18:54.602Z,11.58
2022-09-23T05:21:23.993Z,11.78
2022-09-23T05:23:54.089Z,11.76
2022-09-23T05:26:22.805Z,11.48
2022-09-23T05:28:50.541Z,11.63
2022-09-23T05:31:21.282Z,11.62
2022-09-23T05:33:52.451Z,11.62
2022-09-23T05:36:23.050Z,11.69
2022-09-23T05:38:51.602Z,11.73
2022-09-23T05:41:22.846Z,11.57
2022-09-23T05:43:53.006Z,11.62
2022-09-23T05:46:28.037Z,11.59
2022-09-23T05:49:03.309Z,11.59
2022-09-23T05:51:34.620Z,11.63
2022-09-23T05:54:04.166Z,11.83
2022-09-23T05:56:33.749Z,11.93
2022-09-23T05:59:02.143Z,12.24
2022-09-23T06:01:41.091Z,12.48
2022-09-23T06:04:14.032Z,12.77
2022-09-23T06:06:43.891Z,12.91
2022-09-23T06:09:14.951Z,12.98
2022-09-23T06:11:43.066Z,13.06
2022-09-23T06:14:13.025Z,13.33
2022-09-23T06:16:40.851Z,13.56
2022-09-23T06:19:09.843Z,14.17
2022-09-23T06:21:39.312Z,15.02
2022-09-23T06:24:09.430Z,15.34
2022-09-23T06:26:38.265Z,15.81
2022-09-23T06:29:10.800Z,16.67
2022-09-23T06:31:40.679Z,17.31
2022-09-23T06:34:15.576Z,17.68
2022-09-23T06:36:45.813Z,17.39
2022-09-23T06:39:16.083Z,17.01
2022-09-23T06:41:45.059Z,16.74
2022-09-23T06:44:13.489Z,16.53
2022-09-23T06:46:41.582Z,16.30
2022-09-23T06:49:09.470Z,16.30
2022-09-23T06:51:37.229Z,16.77
2022-09-23T06:54:05.160Z,17.15
2022-09-23T06:56:38.787Z,17.11
2022-09-23T06:59:08.442Z,17.15
2022-09-23T07:01:36.310Z,17.19
2022-09-23T07:04:04.203Z,17.46
2022-09-23T07:06:31.997Z,17.82
2022-09-23T07:09:00.881Z,18.16
2022-09-23T07:11:28.630Z,18.21
2022-09-23T07:13:57.716Z,18.62
2022-09-23T07:16:25.434Z,18.88
2022-09-23T07:18:53.414Z,18.98
2022-09-23T07:21:21.206Z,18.85
2022-09-23T07:23:51.687Z,18.40
2022-09-23T07:26:20.460Z,18.34
2022-09-23T07:28:48.253Z,18.10
2022-09-23T07:31:31.911Z,18.06
2022-09-23T07:34:05.033Z,18.23
2022-09-23T07:36:33.122Z,18.37
2022-09-23T07:39:03.284Z,18.62
2022-09-23T07:41:32.443Z,18.61
2022-09-23T07:44:00.561Z,18.81
2022-09-23T07:46:31.910Z,19.12
2022-09-23T07:48:59.984Z,19.70
2022-09-23T07:51:35.379Z,19.88
2022-09-23T07:54:05.318Z,20.00
2022-09-23T07:56:33.268Z,20.32
2022-09-23T07:59:01.766Z,19.93
2022-09-23T08:01:33.043Z,20.18
2022-09-23T08:04:03.963Z,20.26
2022-09-23T08:06:31.810Z,20.96
2022-09-23T08:09:00.739Z,20.76
2022-09-23T08:11:29.415Z,20.61
2022-09-23T08:13:58.567Z,20.96
2022-09-23T08:16:27.081Z,21.23
2022-09-23T08:18:59.144Z,20.61
2022-09-23T08:21:27.376Z,20.92
2022-09-23T08:23:55.180Z,20.79
2022-09-23T08:26:22.946Z,21.57
2022-09-23T08:28:53.856Z,21.33
2022-09-23T08:31:22.052Z,21.22
2022-09-23T08:33:56.755Z,21.50
2022-09-23T08:36:25.309Z,21.03
2022-09-23T08:38:53.417Z,21.07
2022-09-23T08:41:25.794Z,21.44
2022-09-23T08:43:55.898Z,21.35
2022-09-23T08:46:28.244Z,22.06
2022-09-23T08:48:58.225Z,21.94
2022-09-23T08:51:32.438Z,21.61
2022-09-23T08:54:00.993Z,21.98
2022-09-23T08:56:30.158Z,21.79
2022-09-23T08:59:05.087Z,21.79
2022-09-23T09:01:38.594Z,21.30
2022-09-23T09:04:17.099Z,21.03
2022-09-23T09:06:54.011Z,21.03
2022-09-23T09:09:25.944Z,20.79
2022-09-23T09:12:00.915Z,20.83
2022-09-23T09:14:36.798Z,20.75
2022-09-23T09:17:08.981Z,20.87
2022-09-23T09:19:52.154Z,20.66
2022-09-23T09:22:25.062Z,20.61
2022-09-23T09:25:02.529Z,20.63
2022-09-23T09:27:30.539Z,20.87
2022-09-23T09:30:01.290Z,20.80
2022-09-23T09:32:43.904Z,20.61
2022-09-23T09:35:22.563Z,20.46
2022-09-23T09:37:50.363Z,20.53
2022-09-23T09:40:20.228Z,20.57
2022-09-23T09:42:50.496Z,20.76
2022-09-23T09:45:27.029Z,20.97
2022-09-23T09:48:02.954Z,21.37
2022-09-23T09:50:47.096Z,22.01
2022-09-23T09:53:24.004Z,22.74
2022-09-23T09:56:04.919Z,22.42
2022-09-23T09:58:43.849Z,22.32
2022-09-23T10:01:20.176Z,22.66
2022-09-23T10:03:48.342Z,23.18
2022-09-23T10:06:27.951Z,23.35
2022-09-23T10:09:12.602Z,23.54
2022-09-23T10:11:41.443Z,23.69
2022-09-23T10:14:13.655Z,23.49
2022-09-23T10:16:42.567Z,23.46
2022-09-23T10:19:16.016Z,23.78
2022-09-23T10:21:51.155Z,23.41
2022-09-23T10:24:23.948Z,23.32
2022-09-23T10:26:56.807Z,23.44
2022-09-23T10:29:29.603Z,23.15
2022-09-23T10:32:32.603Z,22.81
2022-09-23T10:35:13.289Z,22.76
2022-09-23T10:37:45.156Z,22.66
2022-09-23T10:40:34.661Z,22.57
2022-09-23T10:43:36.088Z,22.29
2022-09-23T10:46:24.113Z,21.62
2022-09-23T10:49:09.107Z,21.14
2022-09-23T10:51:44.635Z,20.80
2022-09-23T10:54:21.525Z,20.80
2022-09-23T10:56:53.307Z,20.65
2022-09-23T10:59:56.408Z,20.69
2022-09-23T11:02:42.481Z,20.65
2022-09-23T11:05:26.956Z,20.75
2022-09-23T11:08:03.612Z,20.80
2022-09-23T11:11:09.962Z,20.97
2022-09-23T11:13:54.691Z,20.94
2022-09-23T11:16:39.084Z,20.94
2022-09-23T11:19:23.278Z,20.62
2022-09-23T11:22:01.970Z,20.52
2022-09-23T11:24:58.168Z,20.57
2022-09-23T11:27:37.266Z,20.69
2022-09-23T11:30:10.240Z,21.06
2022-09-23T11:32:53.691Z,21.55
2022-09-23T11:35:27.672Z,21.73
2022-09-23T11:37:59.243Z,21.55
2022-09-23T11:40:33.040Z,21.40
2022-09-23T11:43:07.441Z,21.27
2022-09-23T11:45:38.413Z,21.53
2022-09-23T11:48:13.314Z,21.77
2022-09-23T11:50:45.814Z,21.54
2022-09-23T11:53:18.603Z,21.43
2022-09-23T11:55:57.809Z,21.22
2022-09-23T11:58:31.962Z,20.93
2022-09-23T12:01:06.810Z,20.82
2022-09-23T12:03:44.749Z,21.13
2022-09-23T12:06:18.173Z,21.10
2022-09-23T12:08:45.905Z,21.19
2022-09-23T12:11:24.702Z,20.93
2022-09-23T12:14:05.532Z,20.87
2022-09-23T12:16:58.019Z,20.44
2022-09-23T12:19:51.717Z,20.48
2022-09-23T12:22:30.816Z,20.61
2022-09-23T12:25:10.276Z,20.46
2022-09-23T12:27:43.599Z,20.35
2022-09-23T12:30:17.788Z,20.41
2022-09-23T12:32:46.121Z,20.35
2022-09-23T12:35:23.391Z,20.32
2022-09-23T12:37:52.684Z,20.32
2022-09-23T12:40:23.712Z,20.18
2022-09-23T12:42:52.278Z,19.93
2022-09-23T12:45:39.584Z,19.56
2022-09-23T12:48:44.042Z,19.57
2022-09-23T12:51:20.273Z,19.40
2022-09-23T12:54:24.829Z,19.47
2022-09-23T12:57:10.358Z,19.49
2022-09-23T12:59:58.904Z,19.24
2022-09-23T13:02:36.839Z,19.22
2022-09-23T13:05:34.872Z,19.32
2022-09-23T13:08:08.485Z,19.49
2022-09-23T13:10:42.909Z,19.69
2022-09-23T13:13:20.408Z,19.87
2022-09-23T13:15:48.818Z,19.97
2022-09-23T13:18:52.579Z,19.64
2022-09-23T13:22:07.882Z,19.71
2022-09-23T13:24:39.714Z,19.83
2022-09-23T13:27:15.789Z,19.88
2022-09-23T13:29:47.393Z,19.95
2022-09-23T13:32:17.756Z,19.91
2022-09-23T13:34:56.522Z,19.84
2022-09-23T13:37:30.565Z,19.88
2022-09-23T13:40:09.774Z,19.85
2022-09-23T13:42:42.227Z,19.84
2022-09-23T13:45:15.952Z,19.87
2022-09-23T13:47:45.083Z,19.84
2022-09-23T13:50:17.089Z,19.97
2022-09-23T13:52:46.980Z,19.93
2022-09-23T13:55:26.250Z,19.78
2022-09-23T13:58:00.037Z,19.87
2022-09-23T14:00:28.551Z,19.87
2022-09-23T14:02:56.367Z,19.84
2022-09-23T14:05:26.252Z,19.70
2022-09-23T14:07:57.305Z,19.42
2022-09-23T14:10:27.698Z,19.29
2022-09-23T14:12:56.876Z,19.19
2022-09-23T14:15:24.685Z,19.16
2022-09-23T14:17:54.602Z,19.22
2022-09-23T14:20:23.407Z,19.20
2022-09-23T14:23:06.667Z,19.01
2022-09-23T14:25:35.469Z,18.73
2022-09-23T14:28:03.621Z,18.75
2022-09-23T14:30:32.109Z,18.69
2022-09-23T14:33:00.103Z,18.67
2022-09-23T14:35:40.227Z,18.67
2022-09-23T14:38:27.427Z,18.65
2022-09-23T14:41:15.484Z,18.68
2022-09-23T14:43:49.381Z,18.68
2022-09-23T14:46:19.499Z,18.72
2022-09-23T14:49:07.715Z,18.64
2022-09-23T14:51:43.715Z,18.64
2022-09-23T14:54:33.453Z,18.60
2022-09-23T14:57:02.345Z,18.51
2022-09-23T14:59:35.604Z,18.45
2022-09-23T15:02:04.205Z,18.36
2022-09-23T15:04:34.908Z,18.30
2022-09-23T15:07:09.700Z,18.30
2022-09-23T15:09:40.931Z,18.34
2022-09-23T15:12:14.334Z,18.29
2022-09-23T15:14:46.403Z,18.20
2022-09-23T15:17:26.339Z,18.20
2022-09-23T15:19:56.930Z,18.21
2022-09-23T15:22:25.402Z,18.17
2022-09-23T15:24:56.360Z,18.07
2022-09-23T15:27:29.270Z,18.07
2022-09-23T15:30:03.842Z,18.07
2022-09-23T15:32:31.618Z,17.94
2022-09-23T15:34:59.566Z,17.92
2022-09-23T15:37:27.324Z,17.92
2022-09-23T15:39:56.454Z,17.90
2022-09-23T15:42:24.046Z,17.92
2022-09-23T15:44:51.785Z,17.89
2022-09-23T15:47:22.431Z,17.83
2022-09-23T15:49:51.272Z,17.85
2022-09-23T15:52:22.758Z,17.73
2022-09-23T15:54:50.524Z,17.69
2022-09-23T15:57:20.399Z,17.53
2022-09-23T15:59:48.508Z,17.52
2022-09-23T16:02:22.502Z,17.52
2022-09-23T16:04:52.627Z,17.41
2022-09-23T16:07:21.151Z,17.42
2022-09-23T16:09:48.926Z,17.31
2022-09-23T16:12:16.693Z,17.22
2022-09-23T16:14:45.814Z,17.17
2022-09-23T16:17:14.826Z,17.07
2022-09-23T16:19:43.802Z,17.03
2022-09-23T16:22:15.483Z,17.00
2022-09-23T16:24:43.348Z,16.92
2022-09-23T16:27:17.344Z,16.97
2022-09-23T16:29:46.521Z,16.90
2022-09-23T16:32:16.925Z,16.88
2022-09-23T16:34:47.908Z,16.87
2022-09-23T16:37:17.925Z,16.80
2022-09-23T16:39:45.712Z,16.74
2022-09-23T16:42:13.493Z,16.67
2022-09-23T16:44:41.868Z,16.67
2022-09-23T16:47:10.977Z,16.60
2022-09-23T16:49:38.551Z,16.47
2022-09-23T16:52:06.392Z,16.39
2022-09-23T16:54:37.309Z,16.43
2022-09-23T16:57:05.357Z,16.43
2022-09-23T16:59:47.057Z,16.32
2022-09-23T17:02:33.376Z,16.28
2022-09-23T17:05:01.481Z,16.19
2022-09-23T17:07:29.300Z,16.20
2022-09-23T17:09:57.942Z,16.13
2022-09-23T17:12:28.803Z,16.06
2022-09-23T17:14:56.555Z,16.01
2022-09-23T17:17:25.789Z,16.05
2022-09-23T17:19:53.370Z,16.04
2022-09-23T17:22:21.168Z,15.91
2022-09-23T17:24:48.934Z,15.79
2022-09-23T17:27:17.245Z,15.69
2022-09-23T17:29:45.344Z,15.75
2022-09-23T17:32:13.256Z,15.77
2022-09-23T17:34:43.965Z,15.68
2022-09-23T17:37:11.856Z,15.58
2022-09-23T17:39:39.896Z,15.47
2022-09-23T17:42:07.764Z,15.43
2022-09-23T17:44:36.190Z,15.34
2022-09-23T17:47:06.195Z,15.30
2022-09-23T17:49:35.395Z,15.31
2022-09-23T17:52:05.683Z,15.41
2022-09-23T17:54:36.424Z,15.34
2022-09-23T17:57:04.473Z,15.40
2022-09-23T17:59:32.297Z,15.37
2022-09-23T18:02:00.107Z,15.31
2022-09-23T18:04:27.935Z,15.24
2022-09-23T18:06:55.693Z,15.31
2022-09-23T18:09:24.831Z,15.36
2022-09-23T18:11:52.565Z,15.38
2022-09-23T18:14:22.128Z,15.37
2022-09-23T18:16:51.400Z,15.34
2022-09-23T18:19:20.342Z,15.33
2022-09-23T18:21:50.488Z,15.28
2022-09-23T18:24:34.783Z,15.27
2022-09-23T18:27:06.386Z,15.33
2022-09-23T18:29:34.485Z,15.28
2022-09-23T18:32:02.966Z,15.33
2022-09-23T18:34:30.866Z,15.30
2022-09-23T18:36:58.619Z,15.27
2022-09-23T18:39:26.499Z,15.24
2022-09-23T18:41:54.803Z,15.13
2022-09-23T18:44:24.314Z,15.17
2022-09-23T18:46:52.086Z,15.22
2022-09-23T18:49:37.292Z,15.26
2022-09-23T18:52:05.047Z,15.23
2022-09-23T18:54:32.799Z,15.19
2022-09-23T18:57:01.239Z,15.14
2022-09-23T18:59:33.365Z,15.13
2022-09-23T19:02:01.445Z,15.14
2022-09-23T19:04:29.352Z,15.16
2022-09-23T19:06:57.856Z,15.16
2022-09-23T19:09:25.841Z,15.11
2022-09-23T19:11:54.390Z,15.08
2022-09-23T19:14:22.263Z,15.02
2022-09-23T19:16:51.412Z,14.89
2022-09-23T19:19:19.261Z,14.92
2022-09-23T19:21:47.096Z,14.92
2022-09-23T19:24:15.952Z,14.83
2022-09-23T19:26:45.015Z,14.76
2022-09-23T19:29:15.726Z,14.72
2022-09-23T19:31:44.354Z,14.64
2022-09-23T19:34:15.930Z,14.58
2022-09-23T19:36:45.404Z,14.59
2022-09-23T19:39:17.194Z,14.66
2022-09-23T19:41:45.608Z,14.71
2022-09-23T19:44:14.112Z,14.80
2022-09-23T19:46:45.344Z,14.76
2022-09-23T19:49:15.124Z,14.66
2022-09-23T19:51:44.086Z,14.56
2022-09-23T19:54:12.856Z,14.48
2022-09-23T19:56:40.770Z,14.45
2022-09-23T19:59:09.404Z,14.49
2022-09-23T20:01:37.534Z,14.51
2022-09-23T20:04:05.605Z,14.39
2022-09-23T20:06:37.912Z,14.48
2022-09-23T20:09:05.977Z,14.55
2022-09-23T20:11:34.540Z,14.46
2022-09-23T20:14:04.330Z,14.41
2022-09-23T20:16:34.375Z,14.41
2022-09-23T20:19:02.930Z,14.38
2022-09-23T20:21:30.975Z,14.38
2022-09-23T20:24:00.312Z,14.44
2022-09-23T20:26:45.826Z,14.45
2022-09-23T20:29:13.873Z,14.44
2022-09-23T20:31:41.845Z,14.45
2022-09-23T20:34:11.097Z,14.51
2022-09-23T20:36:41.288Z,14.49
2022-09-23T20:39:11.144Z,14.46
2022-09-23T20:41:39.862Z,14.35
2022-09-23T20:44:10.391Z,14.38
2022-09-23T20:46:38.818Z,14.38
2022-09-23T20:49:08.712Z,14.41
2022-09-23T20:51:36.517Z,14.39
2022-09-23T20:54:04.716Z,14.36
2022-09-23T20:56:33.943Z,14.44
2022-09-23T20:59:01.818Z,14.29
2022-09-23T21:01:29.649Z,14.22
2022-09-23T21:03:57.467Z,14.15
2022-09-23T21:06:26.073Z,14.24
2022-09-23T21:08:54.921Z,14.22
2022-09-23T21:11:23.044Z,14.13
2022-09-23T21:13:52.765Z,13.98
2022-09-23T21:16:22.576Z,13.90
2022-09-23T21:18:51.546Z,13.90
2022-09-23T21:21:22.003Z,13.84
2022-09-23T21:23:50.546Z,13.86
2022-09-23T21:26:20.430Z,13.86
2022-09-23T21:28:50.114Z,13.74
2022-09-23T21:31:23.947Z,13.56
2022-09-23T21:33:55.294Z,13.60
2022-09-23T21:36:24.709Z,13.56
2022-09-23T21:38:53.005Z,13.53
2022-09-23T21:41:21.061Z,13.54
2022-09-23T21:43:49.704Z,13.46
2022-09-23T21:46:20.877Z,13.45
2022-09-23T21:48:53.099Z,13.35
2022-09-23T21:51:23.003Z,13.35
2022-09-23T21:53:50.878Z,13.30
2022-09-23T21:56:21.460Z,13.22
2022-09-23T21:58:50.196Z,13.32
2022-09-23T22:01:20.921Z,13.23
2022-09-23T22:03:51.980Z,13.20
2022-09-23T22:06:22.252Z,13.18
2022-09-23T22:08:52.150Z,13.15
2022-09-23T22:11:39.215Z,13.08
2022-09-23T22:14:08.858Z,13.15
2022-09-23T22:16:39.046Z,13.12
2022-09-23T22:19:07.439Z,13.11
2022-09-23T22:21:36.698Z,13.11
2022-09-23T22:24:04.842Z,13.06
2022-09-23T22:26:34.868Z,12.91
2022-09-23T22:29:20.178Z,12.91
2022-09-23T22:32:06.934Z,12.89
2022-09-23T22:34:51.837Z,12.85
2022-09-23T22:37:21.885Z,12.78
2022-09-23T22:39:49.841Z,12.84
2022-09-23T22:42:18.075Z,12.85
2022-09-23T22:44:45.920Z,12.74
2022-09-23T22:47:15.095Z,12.74
2022-09-23T22:49:43.904Z,12.74
2022-09-23T22:52:12.349Z,12.71
2022-09-23T22:54:40.215Z,12.68
2022-09-23T22:57:09.077Z,12.71
2022-09-23T22:59:37.921Z,12.74
2022-09-23T23:02:06.545Z,12.77
2022-09-23T23:04:37.113Z,12.75
2022-09-23T23:07:06.920Z,12.68
2022-09-23T23:09:35.264Z,12.69
2022-09-23T23:12:03.638Z,12.82
2022-09-23T23:14:32.125Z,12.92
2022-09-23T23:17:00.438Z,12.95
2022-09-23T23:19:28.346Z,12.96
2022-09-23T23:21:57.429Z,12.98
2022-09-23T23:24:25.655Z,13.04
2022-09-23T23:26:53.804Z,13.05
2022-09-23T23:29:22.787Z,12.96
2022-09-23T23:31:51.148Z,12.89
2022-09-23T23:34:20.426Z,12.91
2022-09-23T23:36:54.275Z,12.92
2022-09-23T23:39:24.777Z,12.88
2022-09-23T23:41:54.816Z,12.84
2022-09-23T23:44:23.266Z,12.74
2022-09-23T23:46:51.062Z,12.71
2022-09-23T23:49:18.972Z,12.68
2022-09-23T23:51:47.796Z,12.67
2022-09-23T23:54:16.069Z,12.64
2022-09-23T23:56:45.363Z,12.64
2022-09-23T23:59:13.058Z,12.64
